createdAt,value
2023-05-08T00:00:07.184Z,473.00
2023-05-08T00:01:07.224Z,472.00
2023-05-08T00:02:07.172Z,473.00
2023-05-08T00:03:07.309Z,475.00
2023-05-08T00:04:07.323Z,476.00
2023-05-08T00:05:07.259Z,474.00
2023-05-08T00:06:07.247Z,473.00
2023-05-08T00:07:07.262Z,473.00
2023-05-08T00:08:07.206Z,472.00
2023-05-08T00:09:07.202Z,470.00
2023-05-08T00:10:07.264Z,470.00
2023-05-08T00:11:07.245Z,468.00
2023-05-08T00:12:07.235Z,469.00
2023-05-08T00:13:07.268Z,472.00
2023-05-08T00:14:07.246Z,471.00
2023-05-08T00:15:07.599Z,473.00
2023-05-08T00:16:07.261Z,475.00
2023-05-08T00:17:07.301Z,475.00
2023-05-08T00:18:07.299Z,476.00
2023-05-08T00:19:07.251Z,476.00
2023-05-08T00:20:07.264Z,475.00
2023-05-08T00:21:07.297Z,477.00
2023-05-08T00:22:07.300Z,479.00
2023-05-08T00:23:07.312Z,479.00
2023-05-08T00:24:07.286Z,480.00
2023-05-08T00:25:07.292Z,481.00
2023-05-08T00:26:07.360Z,480.00
2023-05-08T00:27:07.304Z,478.00
2023-05-08T00:28:07.407Z,476.00
2023-05-08T00:29:07.345Z,475.00
2023-05-08T00:30:07.360Z,475.00
2023-05-08T00:31:07.376Z,476.00
2023-05-08T00:32:07.421Z,474.00
2023-05-08T00:33:07.423Z,472.00
2023-05-08T00:34:07.358Z,474.00
2023-05-08T00:35:07.496Z,474.00
2023-05-08T00:36:07.424Z,475.00
2023-05-08T00:37:07.418Z,475.00
2023-05-08T00:38:07.390Z,475.00
2023-05-08T00:39:07.425Z,475.00
2023-05-08T00:40:07.464Z,473.00
2023-05-08T00:41:07.455Z,472.00
2023-05-08T00:42:07.462Z,472.00
2023-05-08T00:43:07.450Z,472.00
2023-05-08T00:44:07.469Z,471.00
2023-05-08T00:45:07.474Z,470.00
2023-05-08T00:46:07.562Z,470.00
2023-05-08T00:47:07.540Z,472.00
2023-05-08T00:48:07.531Z,472.00
2023-05-08T00:49:07.537Z,472.00
2023-05-08T00:50:07.565Z,474.00
2023-05-08T00:51:07.630Z,474.00
2023-05-08T00:52:07.585Z,476.00
2023-05-08T00:53:07.648Z,476.00
2023-05-08T00:54:07.631Z,476.00
2023-05-08T00:55:08.059Z,477.00
2023-05-08T00:56:07.624Z,477.00
2023-05-08T00:57:07.634Z,476.00
2023-05-08T00:58:07.652Z,475.00
2023-05-08T00:59:07.657Z,474.00
2023-05-08T01:00:07.712Z,475.00
2023-05-08T01:01:07.751Z,477.00
2023-05-08T01:02:07.684Z,475.00
2023-05-08T01:03:07.764Z,474.00
2023-05-08T01:04:07.713Z,473.00
2023-05-08T01:05:07.720Z,473.00
2023-05-08T01:06:07.709Z,470.00
2023-05-08T01:07:07.751Z,471.00
2023-05-08T01:08:07.748Z,471.00
2023-05-08T01:09:07.761Z,473.00
2023-05-08T01:10:07.778Z,474.00
2023-05-08T01:11:07.767Z,475.00
2023-05-08T01:12:07.767Z,474.00
2023-05-08T01:13:07.885Z,473.00
2023-05-08T01:14:07.802Z,474.00
2023-05-08T01:15:07.817Z,475.00
2023-05-08T01:16:07.834Z,474.00
2023-05-08T01:17:07.856Z,474.00
2023-05-08T01:18:07.850Z,474.00
2023-05-08T01:19:07.865Z,473.00
2023-05-08T01:20:07.871Z,474.00
2023-05-08T01:21:07.882Z,473.00
2023-05-08T01:22:07.885Z,473.00
2023-05-08T01:23:07.895Z,473.00
2023-05-08T01:24:07.914Z,473.00
2023-05-08T01:25:07.975Z,475.00
2023-05-08T01:26:07.961Z,476.00
2023-05-08T01:27:07.941Z,476.00
2023-05-08T01:28:07.988Z,476.00
2023-05-08T01:29:07.968Z,478.00
2023-05-08T01:30:08.004Z,479.00
2023-05-08T01:31:07.975Z,480.00
2023-05-08T01:32:07.977Z,481.00
2023-05-08T01:33:08.081Z,479.00
2023-05-08T01:34:08.101Z,479.00
2023-05-08T01:35:08.044Z,479.00
2023-05-08T01:36:08.056Z,481.00
2023-05-08T01:37:08.069Z,483.00
2023-05-08T01:38:08.086Z,482.00
2023-05-08T01:39:08.095Z,481.00
2023-05-08T01:40:08.133Z,483.00
2023-05-08T01:41:08.091Z,480.00
2023-05-08T01:42:08.110Z,479.00
2023-05-08T01:43:08.117Z,479.00
2023-05-08T01:44:08.154Z,476.00
2023-05-08T01:45:08.158Z,475.00
2023-05-08T01:46:08.206Z,474.00
2023-05-08T01:47:08.222Z,475.00
2023-05-08T01:48:08.260Z,472.00
2023-05-08T01:49:08.223Z,471.00
2023-05-08T01:50:08.309Z,473.00
2023-05-08T01:51:08.271Z,473.00
2023-05-08T01:52:08.261Z,472.00
2023-05-08T01:53:08.305Z,473.00
2023-05-08T01:54:10.119Z,471.00
2023-05-08T01:55:08.292Z,469.00
2023-05-08T01:56:08.306Z,472.00
2023-05-08T01:57:08.342Z,472.00
2023-05-08T01:58:08.307Z,473.00
2023-05-08T01:59:08.376Z,473.00
2023-05-08T02:00:08.350Z,472.00
2023-05-08T02:01:08.413Z,474.00
2023-05-08T02:02:08.386Z,474.00
2023-05-08T02:03:08.423Z,475.00
2023-05-08T02:04:08.453Z,474.00
2023-05-08T02:05:08.405Z,475.00
2023-05-08T02:06:08.455Z,474.00
2023-05-08T02:07:08.466Z,475.00
2023-05-08T02:08:08.506Z,477.00
2023-05-08T02:09:08.510Z,477.00
2023-05-08T02:10:08.524Z,477.00
2023-05-08T02:11:08.515Z,477.00
2023-05-08T02:12:08.516Z,476.00
2023-05-08T02:13:08.588Z,472.00
2023-05-08T02:14:08.545Z,470.00
2023-05-08T02:15:08.573Z,472.00
2023-05-08T02:16:08.610Z,474.00
2023-05-08T02:17:08.612Z,476.00
2023-05-08T02:18:08.660Z,476.00
2023-05-08T02:19:08.654Z,476.00
2023-05-08T02:20:08.653Z,476.00
2023-05-08T02:21:08.653Z,477.00
2023-05-08T02:22:08.722Z,475.00
2023-05-08T02:23:08.673Z,474.00
2023-05-08T02:24:08.742Z,474.00
2023-05-08T02:25:08.753Z,473.00
2023-05-08T02:26:08.762Z,471.00
2023-05-08T02:27:08.774Z,469.00
2023-05-08T02:28:08.767Z,471.00
2023-05-08T02:29:08.767Z,472.00
2023-05-08T02:30:08.794Z,472.00
2023-05-08T02:31:08.802Z,473.00
2023-05-08T02:32:09.665Z,473.00
2023-05-08T02:33:08.873Z,475.00
2023-05-08T02:34:08.854Z,474.00
2023-05-08T02:35:08.889Z,475.00
2023-05-08T02:36:08.858Z,472.00
2023-05-08T02:37:08.882Z,471.00
2023-05-08T02:38:08.915Z,473.00
2023-05-08T02:39:08.907Z,476.00
2023-05-08T02:40:08.943Z,473.00
2023-05-08T02:41:08.936Z,475.00
2023-05-08T02:42:08.962Z,475.00
2023-05-08T02:43:08.976Z,474.00
2023-05-08T02:44:09.017Z,475.00
2023-05-08T02:45:09.033Z,479.00
2023-05-08T02:46:09.072Z,479.00
2023-05-08T02:47:09.072Z,480.00
2023-05-08T02:48:09.099Z,480.00
2023-05-08T02:49:09.100Z,479.00
2023-05-08T02:50:09.170Z,480.00
2023-05-08T02:51:09.137Z,481.00
2023-05-08T02:52:09.206Z,479.00
2023-05-08T02:53:09.179Z,480.00
2023-05-08T02:54:09.206Z,479.00
2023-05-08T02:55:09.209Z,479.00
2023-05-08T02:56:09.217Z,479.00
2023-05-08T02:57:09.222Z,481.00
2023-05-08T02:58:09.269Z,482.00
2023-05-08T02:59:09.247Z,482.00
2023-05-08T03:00:09.343Z,482.00
2023-05-08T03:01:09.315Z,483.00
2023-05-08T03:02:09.319Z,480.00
2023-05-08T03:03:09.378Z,479.00
2023-05-08T03:04:09.335Z,477.00
2023-05-08T03:05:09.623Z,477.00
2023-05-08T03:06:09.382Z,472.00
2023-05-08T03:07:09.373Z,472.00
2023-05-08T03:08:09.408Z,470.00
2023-05-08T03:09:09.434Z,469.00
2023-05-08T03:10:09.466Z,467.00
2023-05-08T03:11:09.498Z,468.00
2023-05-08T03:12:09.505Z,469.00
2023-05-08T03:13:09.550Z,471.00
2023-05-08T03:14:09.489Z,471.00
2023-05-08T03:15:09.544Z,472.00
2023-05-08T03:16:09.629Z,474.00
2023-05-08T03:17:09.558Z,476.00
2023-05-08T03:18:09.594Z,473.00
2023-05-08T03:19:09.628Z,472.00
2023-05-08T03:20:09.662Z,470.00
2023-05-08T03:21:09.630Z,469.00
2023-05-08T03:22:09.676Z,468.00
2023-05-08T03:23:09.697Z,469.00
2023-05-08T03:24:09.718Z,469.00
2023-05-08T03:25:09.713Z,468.00
2023-05-08T03:26:09.744Z,468.00
2023-05-08T03:27:10.148Z,471.00
2023-05-08T03:28:09.744Z,470.00
2023-05-08T03:29:09.775Z,469.00
2023-05-08T03:30:09.923Z,471.00
2023-05-08T03:31:09.846Z,470.00
2023-05-08T03:32:09.819Z,470.00
2023-05-08T03:33:09.873Z,470.00
2023-05-08T03:34:09.860Z,473.00
2023-05-08T03:35:09.924Z,475.00
2023-05-08T03:36:09.919Z,477.00
2023-05-08T03:37:09.922Z,478.00
2023-05-08T03:38:09.936Z,477.00
2023-05-08T03:39:09.986Z,479.00
2023-05-08T03:40:10.007Z,480.00
2023-05-08T03:41:10.026Z,480.00
2023-05-08T03:42:10.029Z,480.00
2023-05-08T03:43:10.040Z,479.00
2023-05-08T03:44:10.105Z,477.00
2023-05-08T03:45:10.046Z,475.00
2023-05-08T03:46:10.107Z,472.00
2023-05-08T03:47:10.147Z,473.00
2023-05-08T03:48:10.153Z,475.00
2023-05-08T03:49:10.152Z,477.00
2023-05-08T03:50:10.303Z,475.00
2023-05-08T03:51:10.166Z,475.00
2023-05-08T03:52:10.195Z,475.00
2023-05-08T03:53:10.201Z,475.00
2023-05-08T03:54:10.226Z,478.00
2023-05-08T03:55:10.237Z,475.00
2023-05-08T03:56:10.266Z,475.00
2023-05-08T03:57:10.269Z,475.00
2023-05-08T03:58:10.287Z,474.00
2023-05-08T03:59:10.276Z,474.00
2023-05-08T04:00:10.496Z,474.00
2023-05-08T04:01:10.313Z,474.00
2023-05-08T04:02:10.400Z,474.00
2023-05-08T04:03:10.497Z,474.00
2023-05-08T04:04:10.406Z,473.00
2023-05-08T04:05:10.681Z,471.00
2023-05-08T04:06:10.399Z,471.00
2023-05-08T04:07:10.426Z,470.00
2023-05-08T04:08:10.454Z,473.00
2023-05-08T04:09:10.454Z,471.00
2023-05-08T04:10:10.679Z,473.00
2023-05-08T04:11:10.495Z,471.00
2023-05-08T04:12:10.509Z,470.00
2023-05-08T04:13:10.560Z,468.00
2023-05-08T04:14:10.538Z,467.00
2023-05-08T04:15:10.562Z,467.00
2023-05-08T04:16:10.619Z,467.00
2023-05-08T04:17:10.780Z,468.00
2023-05-08T04:18:10.672Z,470.00
2023-05-08T04:19:10.675Z,470.00
2023-05-08T04:20:10.653Z,472.00
2023-05-08T04:21:10.669Z,474.00
2023-05-08T04:22:10.695Z,477.00
2023-05-08T04:23:10.716Z,479.00
2023-05-08T04:24:10.742Z,478.00
2023-05-08T04:25:11.222Z,477.00
2023-05-08T04:26:10.732Z,479.00
2023-05-08T04:27:10.803Z,481.00
2023-05-08T04:28:10.781Z,482.00
2023-05-08T04:29:10.790Z,482.00
2023-05-08T04:30:10.819Z,481.00
2023-05-08T04:31:10.818Z,481.00
2023-05-08T04:32:10.937Z,483.00
2023-05-08T04:33:10.973Z,485.00
2023-05-08T04:34:10.859Z,482.00
2023-05-08T04:35:11.459Z,480.00
2023-05-08T04:36:10.867Z,479.00
2023-05-08T04:37:10.916Z,481.00
2023-05-08T04:38:10.886Z,480.00
2023-05-08T04:39:10.920Z,480.00
2023-05-08T04:40:10.942Z,480.00
2023-05-08T04:41:10.959Z,481.00
2023-05-08T04:42:10.970Z,481.00
2023-05-08T04:43:10.989Z,480.00
2023-05-08T04:44:10.987Z,479.00
2023-05-08T04:45:11.212Z,482.00
2023-05-08T04:46:11.061Z,484.00
2023-05-08T04:47:11.050Z,484.00
2023-05-08T04:48:11.064Z,484.00
2023-05-08T04:49:11.102Z,482.00
2023-05-08T04:50:11.115Z,481.00
2023-05-08T04:51:11.092Z,480.00
2023-05-08T04:52:11.129Z,480.00
2023-05-08T04:53:11.120Z,481.00
2023-05-08T04:54:11.147Z,481.00
2023-05-08T04:55:11.368Z,482.00
2023-05-08T04:56:11.173Z,481.00
2023-05-08T04:57:11.200Z,481.00
2023-05-08T04:58:11.222Z,481.00
2023-05-08T04:59:11.227Z,481.00
2023-05-08T05:00:11.266Z,480.00
2023-05-08T05:01:11.385Z,479.00
2023-05-08T05:02:11.278Z,480.00
2023-05-08T05:03:11.407Z,478.00
2023-05-08T05:04:11.424Z,480.00
2023-05-08T05:05:11.714Z,476.00
2023-05-08T05:06:11.335Z,481.00
2023-05-08T05:07:11.389Z,481.00
2023-05-08T05:08:11.392Z,480.00
2023-05-08T05:09:11.379Z,482.00
2023-05-08T05:10:11.440Z,482.00
2023-05-08T05:11:11.411Z,482.00
2023-05-08T05:12:11.720Z,479.00
2023-05-08T05:13:11.499Z,480.00
2023-05-08T05:14:11.455Z,479.00
2023-05-08T05:15:11.583Z,478.00
2023-05-08T05:16:11.562Z,477.00
2023-05-08T05:17:11.526Z,478.00
2023-05-08T05:18:11.608Z,479.00
2023-05-08T05:19:11.636Z,480.00
2023-05-08T05:20:11.564Z,480.00
2023-05-08T05:21:11.592Z,480.00
2023-05-08T05:22:11.608Z,481.00
2023-05-08T05:23:11.622Z,484.00
2023-05-08T05:24:11.654Z,486.00
2023-05-08T05:25:11.992Z,489.00
2023-05-08T05:26:11.775Z,490.00
2023-05-08T05:27:11.694Z,489.00
2023-05-08T05:28:11.704Z,487.00
2023-05-08T05:29:11.739Z,487.00
2023-05-08T05:30:12.052Z,484.00
2023-05-08T05:31:11.768Z,483.00
2023-05-08T05:32:11.787Z,482.00
2023-05-08T05:33:11.842Z,480.00
2023-05-08T05:34:11.803Z,481.00
2023-05-08T05:35:12.048Z,482.00
2023-05-08T05:36:11.918Z,485.00
2023-05-08T05:37:11.914Z,496.00
2023-05-08T05:38:11.900Z,601.00
2023-05-08T05:39:11.932Z,639.00
2023-05-08T05:40:11.976Z,646.00
2023-05-08T05:41:11.946Z,693.00
2023-05-08T05:42:11.976Z,708.00
2023-05-08T05:43:11.980Z,792.00
2023-05-08T05:44:11.959Z,813.00
2023-05-08T05:45:12.096Z,833.00
2023-05-08T05:46:11.988Z,833.00
2023-05-08T05:47:11.998Z,837.00
2023-05-08T05:48:12.181Z,848.00
2023-05-08T05:49:11.987Z,917.00
2023-05-08T05:50:12.318Z,925.00
2023-05-08T05:51:12.031Z,922.00
2023-05-08T05:52:12.067Z,921.00
2023-05-08T05:53:12.135Z,923.00
2023-05-08T05:54:12.058Z,948.00
2023-05-08T05:55:12.682Z,1000.00
2023-05-08T05:56:12.119Z,1019.00
2023-05-08T05:57:12.141Z,1040.00
2023-05-08T05:58:12.187Z,1051.00
2023-05-08T05:59:12.296Z,1051.00
2023-05-08T06:00:12.344Z,1061.00
2023-05-08T06:01:12.376Z,1073.00
2023-05-08T06:02:12.604Z,1086.00
2023-05-08T06:03:12.657Z,1094.00
2023-05-08T06:04:12.700Z,1111.00
2023-05-08T06:05:12.777Z,1180.00
2023-05-08T06:06:12.750Z,1202.00
2023-05-08T06:07:12.658Z,1221.00
2023-05-08T06:08:12.794Z,1246.00
2023-05-08T06:09:12.732Z,1307.00
2023-05-08T06:10:12.857Z,1326.00
2023-05-08T06:11:12.797Z,1354.00
2023-05-08T06:12:12.841Z,1373.00
2023-05-08T06:13:12.990Z,1400.00
2023-05-08T06:14:12.949Z,1425.00
2023-05-08T06:15:13.196Z,1464.00
2023-05-08T06:16:12.946Z,1482.00
2023-05-08T06:17:13.076Z,1498.00
2023-05-08T06:18:12.990Z,1557.00
2023-05-08T06:19:13.035Z,1574.00
2023-05-08T06:20:13.086Z,1589.00
2023-05-08T06:21:13.026Z,1604.00
2023-05-08T06:22:13.036Z,1635.00
2023-05-08T06:23:13.035Z,1658.00
2023-05-08T06:24:13.052Z,1688.00
2023-05-08T06:25:13.289Z,1725.00
2023-05-08T06:26:13.085Z,1751.00
2023-05-08T06:27:13.335Z,1764.00
2023-05-08T06:28:13.073Z,1781.00
2023-05-08T06:29:13.095Z,1800.00
2023-05-08T06:30:13.073Z,1813.00
2023-05-08T06:31:13.188Z,1822.00
2023-05-08T06:32:13.107Z,1863.00
2023-05-08T06:33:13.088Z,1885.00
2023-05-08T06:34:13.114Z,1921.00
2023-05-08T06:35:13.361Z,1967.00
2023-05-08T06:36:13.081Z,1616.00
2023-05-08T06:37:13.292Z,1415.00
2023-05-08T06:38:13.124Z,1245.00
2023-05-08T06:39:13.074Z,994.00
2023-05-08T06:40:13.132Z,901.00
2023-05-08T06:41:15.153Z,935.00
2023-05-08T06:42:13.099Z,866.00
2023-05-08T06:43:13.212Z,1000.00
2023-05-08T06:44:13.124Z,910.00
2023-05-08T06:45:13.299Z,850.00
2023-05-08T06:46:13.219Z,851.00
2023-05-08T06:47:13.180Z,844.00
2023-05-08T06:48:13.190Z,760.00
2023-05-08T06:49:13.321Z,757.00
2023-05-08T06:50:13.236Z,749.00
2023-05-08T06:51:13.253Z,752.00
2023-05-08T06:52:13.448Z,766.00
2023-05-08T06:53:13.292Z,774.00
2023-05-08T06:54:13.312Z,772.00
2023-05-08T06:55:13.490Z,733.00
2023-05-08T06:56:13.406Z,732.00
2023-05-08T06:57:13.938Z,735.00
2023-05-08T06:58:13.389Z,744.00
2023-05-08T06:59:13.489Z,735.00
2023-05-08T07:00:13.527Z,732.00
2023-05-08T07:01:13.511Z,678.00
2023-05-08T07:02:13.511Z,749.00
2023-05-08T07:03:13.593Z,780.00
2023-05-08T07:04:13.586Z,796.00
2023-05-08T07:05:13.791Z,808.00
2023-05-08T07:06:13.560Z,826.00
2023-05-08T07:07:13.593Z,849.00
2023-05-08T07:08:13.635Z,859.00
2023-05-08T07:09:13.645Z,869.00
2023-05-08T07:10:13.581Z,883.00
2023-05-08T07:11:13.568Z,900.00
2023-05-08T07:12:13.586Z,915.00
2023-05-08T07:13:13.785Z,945.00
2023-05-08T07:14:13.591Z,969.00
2023-05-08T07:15:24.837Z,979.00
2023-05-08T07:16:14.592Z,986.00
2023-05-08T07:17:13.554Z,850.00
2023-05-08T07:18:13.677Z,818.00
2023-05-08T07:19:13.528Z,821.00
2023-05-08T07:20:13.590Z,801.00
2023-05-08T07:21:13.535Z,753.00
2023-05-08T07:22:13.559Z,712.00
2023-05-08T07:23:13.519Z,659.00
2023-05-08T07:24:13.505Z,641.00
2023-05-08T07:25:13.804Z,638.00
2023-05-08T07:26:13.484Z,633.00
2023-05-08T07:27:13.471Z,623.00
2023-05-08T07:28:13.529Z,621.00
2023-05-08T07:29:13.492Z,606.00
2023-05-08T07:30:13.469Z,581.00
2023-05-08T07:31:13.492Z,616.00
2023-05-08T07:32:13.461Z,631.00
2023-05-08T07:33:13.570Z,605.00
2023-05-08T07:34:13.477Z,611.00
2023-05-08T07:35:13.911Z,616.00
2023-05-08T07:36:14.250Z,622.00
2023-05-08T07:37:13.606Z,632.00
2023-05-08T07:38:13.751Z,674.00
2023-05-08T07:39:13.602Z,695.00
2023-05-08T07:40:13.685Z,727.00
2023-05-08T07:41:13.700Z,730.00
2023-05-08T07:42:13.636Z,733.00
2023-05-08T07:43:13.824Z,733.00
2023-05-08T07:44:13.796Z,783.00
2023-05-08T07:45:14.060Z,759.00
2023-05-08T07:46:13.723Z,744.00
2023-05-08T07:47:14.000Z,709.00
2023-05-08T07:48:13.847Z,707.00
2023-05-08T07:49:13.882Z,699.00
2023-05-08T07:50:13.845Z,695.00
2023-05-08T07:51:13.857Z,694.00
2023-05-08T07:52:13.882Z,696.00
2023-05-08T07:53:13.944Z,696.00
2023-05-08T07:54:13.959Z,695.00
2023-05-08T07:55:14.877Z,702.00
2023-05-08T07:56:14.003Z,703.00
2023-05-08T07:57:14.032Z,696.00
2023-05-08T07:58:14.079Z,693.00
2023-05-08T07:59:14.107Z,696.00
2023-05-08T08:00:14.145Z,703.00
2023-05-08T08:01:14.138Z,703.00
2023-05-08T08:02:14.213Z,704.00
2023-05-08T08:03:14.315Z,704.00
2023-05-08T08:04:15.420Z,706.00
2023-05-08T08:05:14.398Z,714.00
2023-05-08T08:06:14.238Z,714.00
2023-05-08T08:07:14.306Z,714.00
2023-05-08T08:08:14.324Z,717.00
2023-05-08T08:09:14.339Z,717.00
2023-05-08T08:10:14.376Z,720.00
2023-05-08T08:11:14.445Z,717.00
2023-05-08T08:12:14.439Z,719.00
2023-05-08T08:13:14.510Z,720.00
2023-05-08T08:14:14.515Z,722.00
2023-05-08T08:15:14.632Z,731.00
2023-05-08T08:16:14.521Z,736.00
2023-05-08T08:17:14.599Z,743.00
2023-05-08T08:18:14.607Z,752.00
2023-05-08T08:19:14.664Z,751.00
2023-05-08T08:20:14.630Z,748.00
2023-05-08T08:21:14.634Z,746.00
2023-05-08T08:22:14.672Z,741.00
2023-05-08T08:23:14.677Z,742.00
2023-05-08T08:24:14.722Z,745.00
2023-05-08T08:25:14.953Z,753.00
2023-05-08T08:26:14.743Z,763.00
2023-05-08T08:27:14.787Z,754.00
2023-05-08T08:28:14.804Z,693.00
2023-05-08T08:29:14.811Z,673.00
2023-05-08T08:30:18.062Z,657.00
2023-05-08T08:31:14.859Z,646.00
2023-05-08T08:32:14.843Z,623.00
2023-05-08T08:33:16.318Z,610.00
2023-05-08T08:34:14.911Z,596.00
2023-05-08T08:35:15.168Z,584.00
2023-05-08T08:36:14.871Z,575.00
2023-05-08T08:37:14.873Z,569.00
2023-05-08T08:38:14.825Z,561.00
2023-05-08T08:39:15.411Z,555.00
2023-05-08T08:40:14.854Z,549.00
2023-05-08T08:41:14.784Z,541.00
2023-05-08T08:42:14.814Z,671.00
2023-05-08T08:43:15.267Z,896.00
2023-05-08T08:44:14.792Z,900.00
2023-05-08T08:45:14.964Z,821.00
2023-05-08T08:46:14.860Z,815.00
2023-05-08T08:47:14.736Z,805.00
2023-05-08T08:48:14.774Z,830.00
2023-05-08T08:49:14.734Z,850.00
2023-05-08T08:50:15.254Z,838.00
2023-05-08T08:51:14.797Z,892.00
2023-05-08T08:52:14.743Z,908.00
2023-05-08T08:53:14.711Z,876.00
2023-05-08T08:54:14.713Z,871.00
2023-05-08T08:55:14.829Z,872.00
2023-05-08T08:56:14.713Z,862.00
2023-05-08T08:57:14.657Z,873.00
2023-05-08T08:58:14.793Z,902.00
2023-05-08T08:59:14.719Z,917.00
2023-05-08T09:00:14.647Z,969.00
2023-05-08T09:01:14.695Z,983.00
2023-05-08T09:02:14.889Z,995.00
2023-05-08T09:03:14.819Z,1010.00
2023-05-08T09:04:14.777Z,998.00
2023-05-08T09:05:14.927Z,1001.00
2023-05-08T09:06:14.736Z,998.00
2023-05-08T09:07:15.413Z,1007.00
2023-05-08T09:08:14.764Z,1007.00
2023-05-08T09:09:14.805Z,1006.00
2023-05-08T09:10:14.870Z,1014.00
2023-05-08T09:11:14.830Z,1009.00
2023-05-08T09:12:14.858Z,991.00
2023-05-08T09:13:15.232Z,998.00
2023-05-08T09:14:14.926Z,1001.00
2023-05-08T09:15:15.183Z,991.00
2023-05-08T09:16:14.991Z,998.00
2023-05-08T09:17:14.949Z,1020.00
2023-05-08T09:18:14.996Z,1033.00
2023-05-08T09:19:14.970Z,1034.00
2023-05-08T09:20:15.248Z,1036.00
2023-05-08T09:21:15.348Z,1035.00
2023-05-08T09:22:15.032Z,1033.00
2023-05-08T09:23:15.134Z,965.00
2023-05-08T09:24:15.078Z,965.00
2023-05-08T09:25:16.021Z,952.00
2023-05-08T09:26:15.063Z,942.00
2023-05-08T09:27:15.071Z,932.00
2023-05-08T09:28:15.081Z,878.00
2023-05-08T09:29:15.079Z,883.00
2023-05-08T09:30:15.112Z,891.00
2023-05-08T09:31:15.185Z,902.00
2023-05-08T09:32:15.258Z,897.00
2023-05-08T09:33:15.905Z,912.00
2023-05-08T09:34:15.118Z,971.00
2023-05-08T09:35:15.340Z,977.00
2023-05-08T09:36:15.304Z,988.00
2023-05-08T09:37:15.174Z,964.00
2023-05-08T09:38:15.126Z,915.00
2023-05-08T09:39:15.179Z,916.00
2023-05-08T09:40:15.175Z,933.00
2023-05-08T09:41:15.946Z,936.00
2023-05-08T09:42:15.123Z,934.00
2023-05-08T09:43:15.335Z,936.00
2023-05-08T09:44:15.191Z,933.00
2023-05-08T09:45:15.360Z,926.00
2023-05-08T09:46:15.194Z,915.00
2023-05-08T09:47:15.157Z,898.00
2023-05-08T09:48:15.172Z,869.00
2023-05-08T09:49:15.147Z,846.00
2023-05-08T09:50:15.313Z,837.00
2023-05-08T09:51:15.145Z,830.00
2023-05-08T09:52:15.191Z,823.00
2023-05-08T09:53:15.351Z,814.00
2023-05-08T09:54:15.136Z,808.00
2023-05-08T09:55:15.219Z,807.00
2023-05-08T09:56:15.162Z,804.00
2023-05-08T09:57:15.161Z,802.00
2023-05-08T09:58:15.310Z,809.00
2023-05-08T09:59:15.143Z,808.00
2023-05-08T10:00:15.368Z,808.00
2023-05-08T10:01:15.272Z,810.00
2023-05-08T10:02:15.150Z,800.00
2023-05-08T10:03:15.160Z,793.00
2023-05-08T10:04:15.218Z,796.00
2023-05-08T10:05:15.146Z,786.00
2023-05-08T10:06:15.166Z,787.00
2023-05-08T10:07:15.173Z,761.00
2023-05-08T10:08:15.166Z,768.00
2023-05-08T10:09:15.159Z,778.00
2023-05-08T10:10:15.243Z,779.00
2023-05-08T10:11:15.221Z,788.00
2023-05-08T10:12:15.226Z,781.00
2023-05-08T10:13:15.150Z,788.00
2023-05-08T10:14:15.135Z,790.00
2023-05-08T10:15:15.171Z,787.00
2023-05-08T10:16:15.197Z,788.00
2023-05-08T10:17:15.202Z,782.00
2023-05-08T10:18:15.115Z,783.00
2023-05-08T10:19:15.110Z,780.00
2023-05-08T10:20:15.298Z,781.00
2023-05-08T10:21:15.185Z,788.00
2023-05-08T10:22:15.190Z,795.00
2023-05-08T10:23:15.241Z,838.00
2023-05-08T10:24:15.267Z,860.00
2023-05-08T10:25:15.344Z,861.00
2023-05-08T10:26:15.433Z,870.00
2023-05-08T10:27:15.520Z,863.00
2023-05-08T10:28:15.507Z,840.00
2023-05-08T10:29:15.695Z,916.00
2023-05-08T10:30:15.894Z,895.00
2023-05-08T10:31:15.842Z,901.00
2023-05-08T10:32:15.761Z,917.00
2023-05-08T10:33:15.814Z,923.00
2023-05-08T10:34:15.875Z,915.00
2023-05-08T10:35:16.009Z,902.00
2023-05-08T10:36:15.991Z,881.00
2023-05-08T10:37:16.070Z,881.00
2023-05-08T10:38:16.045Z,861.00
2023-05-08T10:39:16.053Z,775.00
2023-05-08T10:40:16.305Z,780.00
2023-05-08T10:41:16.145Z,783.00
2023-05-08T10:42:16.074Z,779.00
2023-05-08T10:43:16.164Z,762.00
2023-05-08T10:44:16.073Z,786.00
2023-05-08T10:45:16.050Z,773.00
2023-05-08T10:46:16.082Z,750.00
2023-05-08T10:47:16.839Z,836.00
2023-05-08T10:48:16.071Z,852.00
2023-05-08T10:49:16.101Z,760.00
2023-05-08T10:50:16.197Z,814.00
2023-05-08T10:51:16.097Z,810.00
2023-05-08T10:52:16.050Z,797.00
2023-05-08T10:53:16.069Z,793.00
2023-05-08T10:54:16.055Z,781.00
2023-05-08T10:55:16.063Z,772.00
2023-05-08T10:56:16.064Z,761.00
2023-05-08T10:57:16.067Z,755.00
2023-05-08T10:58:16.078Z,748.00
2023-05-08T10:59:16.007Z,742.00
2023-05-08T11:00:16.266Z,739.00
2023-05-08T11:01:16.160Z,738.00
2023-05-08T11:02:16.062Z,725.00
2023-05-08T11:03:29.946Z,721.00
2023-05-08T11:04:17.100Z,719.00
2023-05-08T11:05:16.041Z,716.00
2023-05-08T11:06:16.049Z,711.00
2023-05-08T11:07:16.003Z,710.00
2023-05-08T11:08:16.001Z,710.00
2023-05-08T11:09:15.972Z,711.00
2023-05-08T11:10:16.075Z,711.00
2023-05-08T11:11:16.058Z,709.00
2023-05-08T11:12:15.989Z,714.00
2023-05-08T11:13:16.007Z,713.00
2023-05-08T11:14:15.959Z,717.00
2023-05-08T11:15:15.951Z,718.00
2023-05-08T11:16:16.001Z,720.00
2023-05-08T11:17:15.924Z,715.00
2023-05-08T11:18:15.924Z,709.00
2023-05-08T11:19:16.010Z,711.00
2023-05-08T11:20:16.034Z,708.00
2023-05-08T11:21:16.077Z,750.00
2023-05-08T11:22:15.897Z,730.00
2023-05-08T11:23:16.369Z,742.00
2023-05-08T11:24:15.884Z,742.00
2023-05-08T11:25:15.873Z,737.00
2023-05-08T11:26:15.847Z,737.00
2023-05-08T11:27:15.904Z,739.00
2023-05-08T11:28:15.857Z,739.00
2023-05-08T11:29:15.866Z,739.00
2023-05-08T11:30:15.844Z,738.00
2023-05-08T11:31:15.867Z,733.00
2023-05-08T11:32:15.847Z,733.00
2023-05-08T11:33:15.811Z,732.00
2023-05-08T11:34:15.804Z,731.00
2023-05-08T11:35:15.773Z,730.00
2023-05-08T11:36:15.804Z,730.00
2023-05-08T11:37:15.864Z,729.00
2023-05-08T11:38:15.776Z,722.00
2023-05-08T11:39:15.808Z,718.00
2023-05-08T11:40:15.815Z,715.00
2023-05-08T11:41:15.750Z,709.00
2023-05-08T11:42:15.749Z,708.00
2023-05-08T11:43:15.750Z,703.00
2023-05-08T11:44:15.795Z,700.00
2023-05-08T11:45:15.759Z,693.00
2023-05-08T11:46:15.753Z,687.00
2023-05-08T11:47:15.936Z,680.00
2023-05-08T11:48:15.805Z,676.00
2023-05-08T11:49:15.787Z,674.00
2023-05-08T11:50:16.126Z,672.00
2023-05-08T11:51:15.732Z,671.00
2023-05-08T11:52:15.769Z,670.00
2023-05-08T11:53:15.719Z,667.00
2023-05-08T11:54:15.726Z,664.00
2023-05-08T11:55:15.743Z,661.00
2023-05-08T11:56:15.715Z,659.00
2023-05-08T11:57:15.735Z,656.00
2023-05-08T11:58:15.779Z,654.00
2023-05-08T11:59:15.723Z,648.00
2023-05-08T12:00:15.929Z,643.00
2023-05-08T12:01:15.715Z,638.00
2023-05-08T12:02:15.739Z,633.00
2023-05-08T12:03:15.955Z,630.00
2023-05-08T12:04:15.841Z,628.00
2023-05-08T12:05:15.671Z,624.00
2023-05-08T12:06:15.692Z,623.00
2023-05-08T12:07:15.720Z,618.00
2023-05-08T12:08:15.728Z,613.00
2023-05-08T12:09:15.718Z,610.00
2023-05-08T12:10:16.443Z,610.00
2023-05-08T12:11:15.709Z,609.00
2023-05-08T12:12:15.701Z,605.00
2023-05-08T12:13:15.715Z,600.00
2023-05-08T12:14:15.694Z,596.00
2023-05-08T12:15:15.736Z,593.00
2023-05-08T12:16:15.704Z,593.00
2023-05-08T12:17:15.766Z,592.00
2023-05-08T12:18:15.797Z,588.00
2023-05-08T12:19:15.711Z,583.00
2023-05-08T12:20:16.330Z,580.00
2023-05-08T12:21:15.713Z,577.00
2023-05-08T12:22:15.718Z,574.00
2023-05-08T12:23:15.717Z,573.00
2023-05-08T12:24:15.728Z,573.00
2023-05-08T12:25:15.870Z,571.00
2023-05-08T12:26:15.770Z,571.00